createdAt,value
2023-12-31T04:50:28.925Z,5.30
2023-12-31T04:51:28.505Z,4.90
2023-12-31T04:52:28.412Z,5.00
2023-12-31T04:53:28.403Z,4.90
2023-12-31T04:54:28.375Z,5.20
2023-12-31T04:55:28.341Z,5.20
2023-12-31T04:56:28.357Z,5.20
2023-12-31T04:57:28.346Z,5.40
2023-12-31T04:58:28.359Z,4.90
2023-12-31T04:59:28.295Z,4.80
2023-12-31T05:00:28.276Z,5.40
2023-12-31T05:01:28.403Z,5.30
2023-12-31T05:02:28.274Z,4.80
2023-12-31T05:03:28.316Z,4.80
2023-12-31T05:04:28.280Z,4.60
2023-12-31T05:05:28.247Z,4.60
2023-12-31T05:06:28.241Z,4.90
2023-12-31T05:07:28.251Z,4.50
2023-12-31T05:08:28.195Z,5.10
2023-12-31T05:09:28.203Z,4.30
2023-12-31T05:10:28.216Z,4.70
2023-12-31T05:11:28.174Z,4.80
2023-12-31T05:12:28.148Z,4.90
2023-12-31T05:13:28.213Z,4.50
2023-12-31T05:14:28.153Z,4.60
2023-12-31T05:15:28.132Z,5.00
2023-12-31T05:16:28.173Z,4.30
2023-12-31T05:17:28.248Z,4.60
2023-12-31T05:18:28.203Z,4.40
2023-12-31T05:19:28.086Z,4.30
2023-12-31T05:20:28.082Z,3.90
2023-12-31T05:21:28.063Z,4.40
2023-12-31T05:22:28.098Z,4.30
2023-12-31T05:23:28.082Z,4.00
2023-12-31T05:24:28.019Z,4.40
2023-12-31T05:25:28.082Z,4.20
2023-12-31T05:26:28.038Z,4.10
2023-12-31T05:27:27.999Z,4.60
2023-12-31T05:28:28.032Z,4.30
2023-12-31T05:29:27.984Z,4.00
2023-12-31T05:30:27.980Z,4.00
2023-12-31T05:31:27.992Z,3.90
2023-12-31T05:32:27.968Z,4.10
2023-12-31T05:33:27.944Z,3.90
2023-12-31T05:34:27.917Z,4.00
2023-12-31T05:35:27.931Z,4.20
2023-12-31T05:36:27.897Z,3.60
2023-12-31T05:37:27.939Z,4.10
2023-12-31T05:38:27.884Z,3.70
2023-12-31T05:39:27.873Z,3.50
2023-12-31T05:40:27.866Z,3.90
2023-12-31T05:41:27.853Z,4.10
2023-12-31T05:42:27.831Z,4.30
2023-12-31T05:43:27.851Z,3.90
2023-12-31T05:44:27.813Z,3.60
2023-12-31T05:45:27.803Z,3.80
2023-12-31T05:46:27.861Z,3.70
2023-12-31T05:47:45.207Z,3.80
2023-12-31T05:48:27.913Z,3.60
2023-12-31T05:49:27.997Z,3.50
2023-12-31T05:50:27.773Z,3.90
2023-12-31T05:51:27.789Z,3.80
2023-12-31T05:52:27.752Z,4.00
2023-12-31T05:53:27.892Z,3.70
2023-12-31T05:54:27.700Z,3.60
2023-12-31T05:55:27.723Z,3.50
2023-12-31T05:56:27.693Z,3.70
2023-12-31T05:57:27.687Z,3.80
2023-12-31T05:58:27.690Z,4.30
2023-12-31T05:59:27.656Z,4.20
2023-12-31T06:00:27.641Z,3.70
2023-12-31T06:01:27.650Z,3.80
2023-12-31T06:02:27.638Z,3.80
2023-12-31T06:03:27.672Z,3.90
2023-12-31T06:04:27.592Z,3.80
2023-12-31T06:05:27.612Z,3.50
2023-12-31T06:06:27.589Z,3.60
2023-12-31T06:07:27.644Z,3.80
2023-12-31T06:08:27.544Z,3.90
2023-12-31T06:09:27.541Z,3.60
2023-12-31T06:10:27.597Z,3.30
2023-12-31T06:11:27.519Z,3.60
2023-12-31T06:12:27.532Z,3.70
2023-12-31T06:13:27.590Z,3.90
2023-12-31T06:14:27.489Z,3.80
2023-12-31T06:15:27.528Z,3.50
2023-12-31T06:16:27.551Z,3.20
2023-12-31T06:17:27.494Z,3.60
2023-12-31T06:18:27.512Z,3.60
2023-12-31T06:19:27.503Z,3.40
2023-12-31T06:20:27.438Z,3.60
2023-12-31T06:21:27.427Z,3.40
2023-12-31T06:22:27.458Z,3.40
2023-12-31T06:23:27.384Z,3.30
2023-12-31T06:24:27.399Z,3.20
2023-12-31T06:25:27.403Z,3.00
2023-12-31T06:26:27.388Z,3.20
2023-12-31T06:27:27.348Z,3.40
2023-12-31T06:28:27.383Z,3.30
2023-12-31T06:29:27.343Z,3.40
2023-12-31T06:30:27.444Z,3.30
2023-12-31T06:31:27.495Z,3.40
2023-12-31T06:32:27.434Z,3.40
2023-12-31T06:33:27.424Z,3.20
2023-12-31T06:34:27.316Z,3.30
2023-12-31T06:35:27.280Z,3.50
2023-12-31T06:36:27.292Z,3.50
2023-12-31T06:37:27.344Z,3.20
2023-12-31T06:38:27.241Z,3.20
2023-12-31T06:39:27.218Z,3.50
2023-12-31T06:40:27.273Z,3.20
2023-12-31T06:41:27.200Z,3.80
2023-12-31T06:42:27.214Z,3.50
2023-12-31T06:43:27.208Z,3.40
2023-12-31T06:44:27.204Z,3.40
2023-12-31T06:45:27.170Z,3.80
2023-12-31T06:46:27.199Z,4.10
2023-12-31T06:47:27.159Z,3.60
2023-12-31T06:48:27.137Z,3.60
2023-12-31T06:49:27.156Z,3.40
2023-12-31T06:50:27.122Z,3.30
2023-12-31T06:51:27.091Z,3.40
2023-12-31T06:52:27.088Z,3.20
2023-12-31T06:53:27.104Z,3.20
2023-12-31T06:54:27.100Z,3.20
2023-12-31T06:55:27.078Z,3.10
2023-12-31T06:56:27.053Z,3.80
2023-12-31T06:57:27.029Z,3.50
2023-12-31T06:58:27.066Z,3.30
2023-12-31T06:59:27.060Z,3.10
2023-12-31T07:00:26.992Z,3.40
2023-12-31T07:01:27.100Z,3.20
2023-12-31T07:02:27.115Z,3.60
2023-12-31T07:03:26.971Z,3.50
2023-12-31T07:04:26.993Z,3.70
2023-12-31T07:05:26.989Z,3.50
2023-12-31T07:06:26.932Z,3.30
2023-12-31T07:07:26.925Z,3.60
2023-12-31T07:08:26.926Z,3.10
2023-12-31T07:09:26.933Z,3.20
2023-12-31T07:10:26.965Z,3.60
2023-12-31T07:11:26.865Z,3.30
2023-12-31T07:12:26.913Z,3.20
2023-12-31T07:13:26.932Z,3.20
2023-12-31T07:14:26.893Z,2.70
2023-12-31T07:15:26.875Z,3.60
2023-12-31T07:16:26.832Z,3.10
2023-12-31T07:17:30.191Z,3.00
2023-12-31T07:18:26.947Z,3.20
2023-12-31T07:19:26.828Z,3.00
2023-12-31T07:20:26.769Z,2.80
2023-12-31T07:21:26.791Z,3.30
2023-12-31T07:22:26.862Z,3.10
2023-12-31T07:23:26.756Z,3.30
2023-12-31T07:24:26.758Z,3.10
2023-12-31T07:25:26.812Z,2.90
2023-12-31T07:26:26.712Z,3.20
2023-12-31T07:27:26.695Z,3.30
2023-12-31T07:28:26.741Z,2.90
2023-12-31T07:29:26.693Z,3.10
2023-12-31T07:30:26.716Z,3.30
2023-12-31T07:31:26.702Z,3.00
2023-12-31T07:32:26.708Z,3.10
2023-12-31T07:33:26.662Z,3.00
2023-12-31T07:34:26.683Z,3.30
2023-12-31T07:35:26.618Z,3.00
2023-12-31T07:36:26.695Z,3.20
2023-12-31T07:37:26.636Z,3.20
2023-12-31T07:38:26.589Z,3.10
2023-12-31T07:41:04.880Z,3.50
2023-12-31T07:42:05.979Z,3.50
2023-12-31T07:43:06.103Z,3.40
2023-12-31T07:44:05.813Z,3.20
2023-12-31T07:45:05.786Z,3.10
2023-12-31T07:46:05.797Z,3.20
2023-12-31T07:47:05.967Z,3.60
2023-12-31T07:48:05.774Z,3.30
2023-12-31T07:49:05.882Z,3.30
2023-12-31T07:50:05.806Z,3.10
2023-12-31T07:51:05.727Z,3.30
2023-12-31T09:09:13.213Z,3.30
2023-12-31T09:09:19.217Z,3.30
2023-12-31T15:32:11.860Z,4.40
2023-12-31T15:33:09.727Z,4.40
2023-12-31T15:34:09.600Z,5.00
